Terminal Aerodrome Forecast
Issued by NWS Detroit/Pontiac, MI

Home | Current Version | Previous Version | Text Only | Print | Product List | Glossary On
Versions: 1 2 3 4 5 6 7 8 9 10 11 12 13
000
FTUS43 KDTX 070522
TAFFNT
TAF
KFNT 070522Z 0706/0806 20008KT P6SM SCT060 OVC120
     FM071100 20010KT 6SM -SHRA OVC040
     FM071400 25010KT 3SM SHRA OVC015
     FM071800 32012KT P6SM BKN035 OVC080
     FM072200 36008KT P6SM SCT045=

USA.gov is the U.S. government's official web portal to all federal, state and local government web resources and services.